Observation data for Gail on 05/25/2020      Previous  Date  Next       Current Mesonet Observations  Soil Data  Daily Summary Page  Observations in Plain Language
KGGS 250500Z 10007KT 18/12 A2979 RMK A01 T01800120  RH  071%=      5-min Rain = 0
KGGS 250505Z 09007KT 18/12 A298 RMK A01 T01790120  RH  071%=      5-min Rain = 0
KGGS 250510Z 08006KT 18/12 A298 RMK A01 T01790121  RH  071%=      5-min Rain = 0
KGGS 250515Z 08007KT 18/12 A298 RMK A01 T01790121  RH  071%=      5-min Rain = 0
KGGS 250520Z 08006G11KT 18/12 A298 RMK A01 T01800121  RH  071%=      5-min Rain = 0
KGGS 250525Z 07007KT 18/12 A298 RMK A01 T01790121  RH  071%=      5-min Rain = 0
KGGS 250530Z 06006KT 18/12 A298 RMK A01 T01790121  RH  071%=      5-min Rain = 0
KGGS 250535Z 07004KT 18/12 A298 RMK A01 T01790121  RH  071%=      5-min Rain = 0
KGGS 250540Z 08004KT 18/12 A298 RMK A01 T01790121  RH  071%=      5-min Rain = 0
KGGS 250545Z 09004KT 18/12 A298 RMK A01 T01800121  RH  071%=      5-min Rain = 0
KGGS 250550Z 06003KT 18/12 A298 RMK A01 T01790121  RH  071%=      5-min Rain = 0
KGGS 250555Z 05002KT 18/12 A298 RMK A01 T01780121  RH  072%=      5-min Rain = 0
KGGS 250600Z 11001KT 18/12 A298 RMK A01 T01780121  RH  072%=      5-min Rain = 0
KGGS 250605Z 09002KT 18/12 A298 RMK A01 T01780121  RH  072%=      5-min Rain = 0
KGGS 250610Z 08003KT 18/12 A298 RMK A01 T01770121  RH  072%=      5-min Rain = 0
KGGS 250615Z 10002KT 18/12 A298 RMK A01 T01770121  RH  073%=      5-min Rain = 0
KGGS 250620Z 14002KT 18/12 A298 RMK A01 T01760122  RH  073%=      5-min Rain = 0
KGGS 250625Z 13003KT 18/12 A2981 RMK A01 T01750122  RH  074%=      5-min Rain = 0
KGGS 250630Z 10004KT 17/12 A2982 RMK A01 T01740123  RH  075%=      5-min Rain = 0
KGGS 250635Z 07007KT 17/12 A2983 RMK A01 T01730123  RH  075%=      5-min Rain = 0
KGGS 250640Z 07005KT 17/12 A2984 RMK A01 T01740124  RH  075%=      5-min Rain = 0
KGGS 250645Z 08004KT 17/12 A2985 RMK A01 T01740124  RH  075%=      5-min Rain = 0
KGGS 250650Z 09004KT 18/13 A2985 RMK A01 T01750125  RH  075%=      5-min Rain = 0
KGGS 250655Z 09006G12KT 18/13 A2985 RMK A01 T01760125  RH  075%=      5-min Rain = 0
KGGS 250700Z 10007KT 18/13 A2985 RMK A01 T01770125  RH  075%=      5-min Rain = 0
KGGS 250705Z 10009G15KT 18/13 A2985 RMK A01 T01780125  RH  074%=      5-min Rain = 0
KGGS 250710Z 09008G14KT 18/13 A2985 RMK A01 T01780126  RH  074%=      5-min Rain = 0
KGGS 250715Z 08008G14KT 18/13 A2985 RMK A01 T01770125  RH  074%=      5-min Rain = 0
KGGS 250720Z 07011G16KT 18/13 A2985 RMK A01 T01750125  RH  075%=      5-min Rain = 0
KGGS 250725Z 08008G13KT 17/13 A2985 RMK A01 T01740126  RH  077%=      5-min Rain = 0
KGGS 250730Z 08009G15KT 17/13 A2985 RMK A01 T01730126  RH  077%=      5-min Rain = 0
KGGS 250735Z 09010G15KT 17/13 A2985 RMK A01 T01730126  RH  077%=      5-min Rain = 0
KGGS 250740Z 09010KT 17/13 A2984 RMK A01 T01730126  RH  077%=      5-min Rain = 0
KGGS 250745Z 09010KT 17/13 A2984 RMK A01 T01720127  RH  078%=      5-min Rain = 0
KGGS 250750Z 09008KT 17/13 A2984 RMK A01 T01710127  RH  078%=      5-min Rain = 0
KGGS 250755Z 10009KT 17/13 A2983 RMK A01 T01710127  RH  078%=      5-min Rain = 0
KGGS 250800Z 10007G12KT 17/13 A2983 RMK A01 T01700127  RH  079%=      5-min Rain = 0
KGGS 250805Z 10007KT 17/13 A2982 RMK A01 T01690127  RH  080%=      5-min Rain = 0
KGGS 250810Z 08007KT 17/13 A2982 RMK A01 T01680128  RH  080%=      5-min Rain = 0
KGGS 250815Z 08007KT 17/13 A2982 RMK A01 T01680128  RH  081%=      5-min Rain = 0
KGGS 250820Z 07005KT 17/13 A2983 RMK A01 T01660128  RH  081%=      5-min Rain = 0
KGGS 250825Z 08006G11KT 17/13 A2983 RMK A01 T01660128  RH  082%=      5-min Rain = 0
KGGS 250830Z 07006KT 17/13 A2983 RMK A01 T01660128  RH  082%=      5-min Rain = 0
KGGS 250835Z 07006KT 17/13 A2983 RMK A01 T01650128  RH  082%=      5-min Rain = 0
KGGS 250840Z 07006KT 16/13 A2983 RMK A01 T01640128  RH  082%=      5-min Rain = 0
KGGS 250845Z 06006KT 16/13 A2983 RMK A01 T01640127  RH  082%=      5-min Rain = 0
KGGS 250850Z 07007KT 16/13 A2983 RMK A01 T01630127  RH  082%=      5-min Rain = 0
KGGS 250855Z 06007KT 16/13 A2983 RMK A01 T01630128  RH  083%=      5-min Rain = 0
KGGS 250900Z 06005KT 16/13 A2983 RMK A01 T01630128  RH  083%=      5-min Rain = 0
KGGS 250905Z 05005KT 16/13 A2983 RMK A01 T01620128  RH  083%=      5-min Rain = 0
KGGS 250910Z 06005KT 16/13 A2983 RMK A01 T01610128  RH  084%=      5-min Rain = 0
KGGS 250915Z 05003KT 16/13 A2983 RMK A01 T01600127  RH  084%=      5-min Rain = 0
KGGS 250920Z 04002KT 16/13 A2983 RMK A01 T01590126  RH  084%=      5-min Rain = 0
KGGS 250925Z 03002KT 16/13 A2983 RMK A01 T01580126  RH  085%=      5-min Rain = 0
KGGS 250930Z 03003KT 16/13 A2983 RMK A01 T01570126  RH  085%=      5-min Rain = 0
KGGS 250935Z 03004KT 16/13 A2983 RMK A01 T01560126  RH  085%=      5-min Rain = 0
KGGS 250940Z 03004KT 16/13 A2982 RMK A01 T01550126  RH  086%=      5-min Rain = 0
KGGS 250945Z 02003KT 16/13 A2983 RMK A01 T01550126  RH  086%=      5-min Rain = 0
KGGS 250950Z 02002KT 15/13 A2982 RMK A01 T01540126  RH  087%=      5-min Rain = 0
KGGS 250955Z 01002KT 15/13 A2982 RMK A01 T01530126  RH  087%=      5-min Rain = 0
KGGS 251000Z 36002KT 15/12 A2982 RMK A01 T01510124  RH  087%=      5-min Rain = 0
KGGS 251005Z 34002KT 15/12 A2982 RMK A01 T01500124  RH  088%=      5-min Rain = 0
KGGS 251010Z 34002KT 15/12 A2981 RMK A01 T01490124  RH  088%=      5-min Rain = 0
KGGS 251015Z 34003KT 15/12 A2981 RMK A01 T01470123  RH  089%=      5-min Rain = 0
KGGS 251020Z 33003KT 15/12 A2981 RMK A01 T01450121  RH  089%=      5-min Rain = 0
KGGS 251025Z 33003KT 14/12 A2981 RMK A01 T01440121  RH  089%=      5-min Rain = 0
KGGS 251030Z 33003KT 14/12 A2981 RMK A01 T01430121  RH  089%=      5-min Rain = 0
KGGS 251035Z 33003KT 14/12 A2981 RMK A01 T01430121  RH  090%=      5-min Rain = 0
KGGS 251040Z 31004KT 14/12 A2981 RMK A01 T01430122  RH  090%=      5-min Rain = 0
KGGS 251045Z 29005KT 14/12 A2981 RMK A01 T01430122  RH  090%=      5-min Rain = 0
KGGS 251050Z 28005KT 14/12 A298 RMK A01 T01440123  RH  091%=      5-min Rain = 0
KGGS 251055Z 27005KT 15/13 A298 RMK A01 T01460125  RH  091%=      5-min Rain = 0
KGGS 251100Z 29005KT 14/12 A2981 RMK A01 T01440123  RH  091%=      5-min Rain = 0
KGGS 251105Z 31005KT 14/12 A2982 RMK A01 T01400119  RH  091%=      5-min Rain = 0
KGGS 251110Z 33004KT 14/12 A2982 RMK A01 T01370117  RH  091%=      5-min Rain = 0
KGGS 251115Z 31003KT 14/12 A2982 RMK A01 T01380118  RH  091%=      5-min Rain = 0
KGGS 251120Z 33003KT 14/12 A2982 RMK A01 T01380119  RH  091%=      5-min Rain = 0
KGGS 251125Z 33003KT 14/12 A2982 RMK A01 T01370118  RH  091%=      5-min Rain = 0
KGGS 251130Z 36004KT 14/12 A2982 RMK A01 T01370118  RH  091%=      5-min Rain = 0
KGGS 251135Z 35005KT 14/12 A2983 RMK A01 T01350116  RH  091%=      5-min Rain = 0
KGGS 251140Z 32004KT 13/12 A2984 RMK A01 T01330115  RH  092%=      5-min Rain = 0
KGGS 251145Z 31003KT 13/12 A2984 RMK A01 T01340116  RH  092%=      5-min Rain = 0
KGGS 251150Z 35005KT 14/12 A2985 RMK A01 T01370119  RH  092%=      5-min Rain = 0
KGGS 251155Z 00006KT 14/12 A2985 RMK A01 T01430124  RH  092%=      5-min Rain = 0
KGGS 251200Z 01006KT 14/12 A2985 RMK A01 T01430124  RH  092%=      5-min Rain = 0
KGGS 251205Z 01006KT 14/13 A2985 RMK A01 T01440125  RH  092%=      5-min Rain = 0
KGGS 251210Z 01006KT 14/13 A2986 RMK A01 T01440126  RH  092%=      5-min Rain = 0
KGGS 251215Z 01006KT 15/13 A2985 RMK A01 T01450127  RH  092%=      5-min Rain = 0
KGGS 251220Z 01004KT 15/13 A2985 RMK A01 T01450126  RH  092%=      5-min Rain = 0
KGGS 251225Z 35004KT 14/13 A2985 RMK A01 T01430125  RH  092%=      5-min Rain = 0
KGGS 251230Z 36004KT 14/12 A2985 RMK A01 T01420124  RH  092%=      5-min Rain = 0
KGGS 251235Z 35003KT 14/12 A2985 RMK A01 T01420124  RH  092%=      5-min Rain = 0
KGGS 251240Z 34002KT 14/12 A2985 RMK A01 T01410123  RH  092%=      5-min Rain = 0
KGGS 251245Z 34004KT 14/12 A2985 RMK A01 T01400122  RH  092%=      5-min Rain = 0
KGGS 251250Z 35006KT 14/12 A2986 RMK A01 T01410123  RH  093%=      5-min Rain = 0
KGGS 251255Z 36006KT 15/13 A2987 RMK A01 T01460128  RH  093%=      5-min Rain = 0
KGGS 251300Z 01007KT 15/13 A2987 RMK A01 T01500132  RH  092%=      5-min Rain = 0
KGGS 251305Z 00007KT 15/13 A2987 RMK A01 T01530134  RH  092%=      5-min Rain = 0
KGGS 251310Z 36008KT 15/13 A2987 RMK A01 T01540134  RH  092%=      5-min Rain = 0
KGGS 251315Z 01008KT 16/14 A2987 RMK A01 T01570136  RH  091%=      5-min Rain = 0
KGGS 251320Z 01008KT 16/14 A2988 RMK A01 T01610138  RH  090%=      5-min Rain = 0
KGGS 251325Z 01010G15KT 16/14 A2988 RMK A01 T01640137  RH  087%=      5-min Rain = 0
KGGS 251330Z 02011KT 17/13 A2988 RMK A01 T01670134  RH  084%=      5-min Rain = 0
KGGS 251335Z 02012KT 17/13 A2989 RMK A01 T01700131  RH  081%=      5-min Rain = 0
KGGS 251340Z 02012KT 17/13 A2989 RMK A01 T01710129  RH  080%=      5-min Rain = 0
KGGS 251345Z 03010G15KT 17/13 A299 RMK A01 T01690128  RH  080%=      5-min Rain = 0
KGGS 251350Z 03012G18KT 17/13 A299 RMK A01 T01710128  RH  079%=      5-min Rain = 0
KGGS 251355Z 03009KT 17/13 A299 RMK A01 T01720127  RH  078%=      5-min Rain = 0
KGGS 251400Z 03011G16KT 17/13 A2991 RMK A01 T01730125  RH  077%=      5-min Rain = 0
KGGS 251405Z 03012G17KT 17/12 A2991 RMK A01 T01730124  RH  076%=      5-min Rain = 0
KGGS 251410Z 03011KT 18/12 A2991 RMK A01 T01750124  RH  075%=      5-min Rain = 0
KGGS 251415Z 02011G16KT 18/12 A2991 RMK A01 T01750123  RH  074%=      5-min Rain = 0
KGGS 251420Z 03011G16KT 18/12 A2991 RMK A01 T01770124  RH  074%=      5-min Rain = 0
KGGS 251425Z 03010G16KT 18/12 A2991 RMK A01 T01790124  RH  073%=      5-min Rain = 0
KGGS 251430Z 04012G17KT 18/12 A2991 RMK A01 T01770122  RH  073%=      5-min Rain = 0
KGGS 251435Z 03012KT 18/12 A2991 RMK A01 T01770122  RH  073%=      5-min Rain = 0
KGGS 251440Z 04010G15KT 18/12 A2991 RMK A01 T01780123  RH  073%=      5-min Rain = 0
KGGS 251445Z 04011G16KT 18/12 A2991 RMK A01 T01800123  RH  072%=      5-min Rain = 0
KGGS 251450Z 04011KT 18/12 A2991 RMK A01 T01800123  RH  072%=      5-min Rain = 0
KGGS 251455Z 04012KT 18/12 A2991 RMK A01 T01810122  RH  071%=      5-min Rain = 0
KGGS 251500Z 04011KT 18/12 A2991 RMK A01 T01810122  RH  071%=      5-min Rain = 0
KGGS 251505Z 05012KT 18/12 A2991 RMK A01 T01810122  RH  071%=      5-min Rain = 0
KGGS 251510Z 05010KT 18/12 A2992 RMK A01 T01830123  RH  071%=      5-min Rain = 0
KGGS 251515Z 04011G16KT 19/12 A2992 RMK A01 T01850123  RH  070%=      5-min Rain = 0
KGGS 251520Z 04011G16KT 19/12 A2992 RMK A01 T01850122  RH  069%=      5-min Rain = 0
KGGS 251525Z 05010G15KT 19/12 A2992 RMK A01 T01860123  RH  069%=      5-min Rain = 0
KGGS 251530Z 04011G17KT 19/12 A2992 RMK A01 T01890124  RH  069%=      5-min Rain = 0
KGGS 251535Z 04011KT 19/12 A2992 RMK A01 T01870123  RH  069%=      5-min Rain = 0
KGGS 251540Z 03011G16KT 19/12 A2992 RMK A01 T01910122  RH  067%=      5-min Rain = 0
KGGS 251545Z 05012G17KT 19/12 A2992 RMK A01 T01930122  RH  066%=      5-min Rain = 0
KGGS 251550Z 05010KT 20/12 A2992 RMK A01 T01970124  RH  065%=      5-min Rain = 0
KGGS 251555Z 04009KT 20/12 A2992 RMK A01 T01980124  RH  065%=      5-min Rain = 0
KGGS 251600Z 05011KT 20/12 A2992 RMK A01 T01950123  RH  066%=      5-min Rain = 0
KGGS 251605Z 04012G18KT 19/12 A2992 RMK A01 T01940122  RH  065%=      5-min Rain = 0
KGGS 251610Z 05011G16KT 19/12 A2992 RMK A01 T01920121  RH  066%=      5-min Rain = 0
KGGS 251615Z 03010G15KT 19/12 A2992 RMK A01 T01920122  RH  066%=      5-min Rain = 0
KGGS 251620Z 03013G19KT 19/12 A2992 RMK A01 T01910117  RH  065%=      5-min Rain = 0
KGGS 251625Z 04012KT 19/12 A2992 RMK A01 T01890115  RH  065%=      5-min Rain = 0
KGGS 251630Z 03011KT 19/12 A2992 RMK A01 T01890119  RH  066%=      5-min Rain = 0
KGGS 251635Z 03012KT 19/12 A2992 RMK A01 T01910120  RH  066%=      5-min Rain = 0
KGGS 251640Z 04010G15KT 19/12 A2992 RMK A01 T01940117  RH  063%=      5-min Rain = 0
KGGS 251645Z 03012G19KT 20/12 A2992 RMK A01 T01990115  RH  061%=      5-min Rain = 0
KGGS 251650Z 03013KT 20/11 A2993 RMK A01 T01990113  RH  059%=      5-min Rain = 0
KGGS 251655Z 03013G18KT 20/11 A2992 RMK A01 T02030114  RH  059%=      5-min Rain = 0
KGGS 251700Z 04012G18KT 20/12 A2993 RMK A01 T02040115  RH  059%=      5-min Rain = 0
KGGS 251705Z 04013G18KT 21/11 A2993 RMK A01 T02070112  RH  056%=      5-min Rain = 0
KGGS 251710Z 04012G17KT 22/11 A2992 RMK A01 T02160113  RH  054%=      5-min Rain = 0
KGGS 251715Z 03014G20KT 21/11 A2993 RMK A01 T02110107  RH  053%=      5-min Rain = 0
KGGS 251720Z 03013G19KT 21/11 A2993 RMK A01 T02070109  RH  055%=      5-min Rain = 0
KGGS 251725Z 03014KT 21/11 A2993 RMK A01 T02080106  RH  054%=      5-min Rain = 0
KGGS 251730Z 04013G18KT 21/11 A2993 RMK A01 T02050109  RH  056%=      5-min Rain = 0
KGGS 251735Z 04013G18KT 20/11 A2993 RMK A01 T02040108  RH  056%=      5-min Rain = 0
KGGS 251740Z 03012G17KT 20/11 A2993 RMK A01 T02030110  RH  057%=      5-min Rain = 0
KGGS 251745Z 03011G17KT 21/11 A2993 RMK A01 T02070111  RH  056%=      5-min Rain = 0
KGGS 251750Z 02013G18KT 21/11 A2993 RMK A01 T02090111  RH  055%=      5-min Rain = 0
KGGS 251755Z 02014KT 21/11 A2993 RMK A01 T02080108  RH  054%=      5-min Rain = 0
KGGS 251800Z 03010G16KT 21/11 A2993 RMK A01 T02070110  RH  056%=      5-min Rain = 0
KGGS 251805Z 03012KT 21/11 A2993 RMK A01 T02110111  RH  055%=      5-min Rain = 0
KGGS 251810Z 03012KT 21/11 A2993 RMK A01 T02140110  RH  053%=      5-min Rain = 0
KGGS 251815Z 03012KT 21/11 A2993 RMK A01 T02110110  RH  054%=      5-min Rain = 0
KGGS 251820Z 03012KT 22/11 A2992 RMK A01 T02200110  RH  052%=      5-min Rain = 0
KGGS 251825Z 02011G16KT 22/11 A2992 RMK A01 T02210108  RH  051%=      5-min Rain = 0
KGGS 251830Z 02013G18KT 22/11 A2992 RMK A01 T02230107  RH  049%=      5-min Rain = 0
KGGS 251835Z 02011G16KT 23/11 A2992 RMK A01 T02290110  RH  049%=      5-min Rain = 0
KGGS 251840Z 03012KT 23/11 A2991 RMK A01 T02290107  RH  048%=      5-min Rain = 0
KGGS 251845Z 02012G17KT 23/11 A2991 RMK A01 T02250109  RH  049%=      5-min Rain = 0
KGGS 251850Z 02012G17KT 23/11 A2991 RMK A01 T02270110  RH  049%=      5-min Rain = 0
KGGS 251855Z 03010G16KT 23/11 A2991 RMK A01 T02300110  RH  048%=      5-min Rain = 0
KGGS 251900Z 03013KT 23/11 A2991 RMK A01 T02290108  RH  048%=      5-min Rain = 0
KGGS 251905Z 02011G16KT 23/11 A2991 RMK A01 T02330111  RH  048%=      5-min Rain = 0
KGGS 251910Z 01011G17KT 23/11 A299 RMK A01 T02320108  RH  047%=      5-min Rain = 0
KGGS 251915Z 02010G16KT 24/11 A299 RMK A01 T02350111  RH  047%=      5-min Rain = 0
KGGS 251920Z 03011G16KT 24/11 A299 RMK A01 T02370105  RH  045%=      5-min Rain = 0
KGGS 251925Z 02011G16KT 23/11 A2991 RMK A01 T02340105  RH  046%=      5-min Rain = 0
KGGS 251930Z 03011G16KT 23/11 A2991 RMK A01 T02340105  RH  046%=      5-min Rain = 0
KGGS 251935Z 02012G17KT 24/10 A2991 RMK A01 T02360103  RH  044%=      5-min Rain = 0
KGGS 251940Z 03010G15KT 24/10 A299 RMK A01 T02390104  RH  044%=      5-min Rain = 0
KGGS 251945Z 03010G15KT 24/11 A299 RMK A01 T02390105  RH  044%=      5-min Rain = 0
KGGS 251950Z 02011G17KT 24/11 A299 RMK A01 T02390105  RH  044%=      5-min Rain = 0
KGGS 251955Z 03010G16KT 24/10 A299 RMK A01 T02400101  RH  043%=      5-min Rain = 0
KGGS 252000Z 02008KT 24/10 A299 RMK A01 T02350099  RH  044%=      5-min Rain = 0
KGGS 252005Z 02009G14KT 24/10 A299 RMK A01 T02350101  RH  044%=      5-min Rain = 0
KGGS 252010Z 03007KT 24/10 A299 RMK A01 T02370104  RH  044%=      5-min Rain = 0
KGGS 252015Z 04009G14KT 24/10 A299 RMK A01 T02410104  RH  043%=      5-min Rain = 0
KGGS 252020Z 00009KT 24/10 A299 RMK A01 T02390104  RH  044%=      5-min Rain = 0
KGGS 252025Z 01009KT 24/11 A299 RMK A01 T02400107  RH  045%=      5-min Rain = 0
KGGS 252030Z 02008G13KT 24/11 A299 RMK A01 T02360107  RH  046%=      5-min Rain = 0
KGGS 252035Z 02007KT 23/11 A299 RMK A01 T02340107  RH  046%=      5-min Rain = 0
KGGS 252040Z 02008KT 23/11 A299 RMK A01 T02310107  RH  047%=      5-min Rain = 0
KGGS 252045Z 01009KT 23/11 A299 RMK A01 T02300105  RH  047%=      5-min Rain = 0
KGGS 252050Z 36009KT 23/11 A299 RMK A01 T02320110  RH  048%=      5-min Rain = 0
KGGS 252055Z 01009KT 23/11 A299 RMK A01 T02320109  RH  047%=      5-min Rain = 0
KGGS 252100Z 03008KT 23/11 A299 RMK A01 T02300107  RH  047%=      5-min Rain = 0
KGGS 252105Z 01007KT 23/11 A299 RMK A01 T02300111  RH  049%=      5-min Rain = 0
KGGS 252110Z 36009G14KT 23/11 A299 RMK A01 T02300111  RH  048%=      5-min Rain = 0
KGGS 252115Z 01007KT 23/11 A299 RMK A01 T02280110  RH  049%=      5-min Rain = 0
KGGS 252120Z 01008KT 23/11 A299 RMK A01 T02280109  RH  049%=      5-min Rain = 0
KGGS 252125Z 02007G12KT 23/11 A299 RMK A01 T02280109  RH  049%=      5-min Rain = 0
KGGS 252130Z 04008KT 23/11 A299 RMK A01 T02290108  RH  048%=      5-min Rain = 0
KGGS 252135Z 03007KT 23/11 A299 RMK A01 T02300109  RH  048%=      5-min Rain = 0
KGGS 252140Z 01006KT 23/11 A299 RMK A01 T02280110  RH  049%=      5-min Rain = 0
KGGS 252145Z 01007KT 23/11 A299 RMK A01 T02280111  RH  049%=      5-min Rain = 0
KGGS 252150Z 03007KT 23/11 A299 RMK A01 T02290109  RH  048%=      5-min Rain = 0
KGGS 252155Z 03009KT 23/11 A299 RMK A01 T02270110  RH  049%=      5-min Rain = 0
KGGS 252200Z 03008KT 23/11 A299 RMK A01 T02280111  RH  049%=      5-min Rain = 0
KGGS 252205Z 04009KT 23/11 A2989 RMK A01 T02300112  RH  049%=      5-min Rain = 0
KGGS 252210Z 02009KT 23/11 A299 RMK A01 T02290109  RH  048%=      5-min Rain = 0
KGGS 252215Z 03008KT 23/11 A299 RMK A01 T02290109  RH  048%=      5-min Rain = 0
KGGS 252220Z 02008KT 23/11 A299 RMK A01 T02300112  RH  049%=      5-min Rain = 0
KGGS 252225Z 01008KT 23/11 A299 RMK A01 T02310114  RH  049%=      5-min Rain = 0
KGGS 252230Z 36010KT 23/11 A299 RMK A01 T02310109  RH  048%=      5-min Rain = 0
KGGS 252235Z 01009KT 23/11 A299 RMK A01 T02300110  RH  048%=      5-min Rain = 0
KGGS 252240Z 01009KT 23/11 A299 RMK A01 T02290110  RH  049%=      5-min Rain = 0
KGGS 252245Z 01009G14KT 23/11 A299 RMK A01 T02310112  RH  049%=      5-min Rain = 0
KGGS 252250Z 02009G14KT 23/11 A299 RMK A01 T02300113  RH  049%=      5-min Rain = 0
KGGS 252255Z 02009KT 23/12 A299 RMK A01 T02280115  RH  050%=      5-min Rain = 0
KGGS 252300Z 02009G16KT 23/12 A2989 RMK A01 T02260115  RH  051%=      5-min Rain = 0
KGGS 252305Z 02010KT 23/12 A2989 RMK A01 T02260116  RH  052%=      5-min Rain = 0
KGGS 252310Z 03010G15KT 23/12 A299 RMK A01 T02250116  RH  052%=      5-min Rain = 0
KGGS 252315Z 03009KT 23/12 A299 RMK A01 T02250115  RH  052%=      5-min Rain = 0
KGGS 252320Z 03008KT 23/12 A299 RMK A01 T02250115  RH  052%=      5-min Rain = 0
KGGS 252325Z 02009G14KT 23/12 A299 RMK A01 T02250116  RH  052%=      5-min Rain = 0
KGGS 252330Z 01009KT 22/12 A299 RMK A01 T02230117  RH  053%=      5-min Rain = 0
KGGS 252335Z 03008KT 22/12 A299 RMK A01 T02220118  RH  054%=      5-min Rain = 0
KGGS 252340Z 02007KT 22/12 A2991 RMK A01 T02210118  RH  054%=      5-min Rain = 0
KGGS 252345Z 02008KT 22/12 A2991 RMK A01 T02200118  RH  054%=      5-min Rain = 0
KGGS 252350Z 02009KT 22/12 A2991 RMK A01 T02180119  RH  055%=      5-min Rain = 0
KGGS 252355Z 03008KT 21/13 A2991 RMK A01 T02140125  RH  059%=      5-min Rain = 0
KGGS 260000Z 03006KT 21/13 A2991 RMK A01 T02100129  RH  062%=      5-min Rain = 0
KGGS 260005Z 04006KT 21/13 A2991 RMK A01 T02090127  RH  062%=      5-min Rain = 0
KGGS 260010Z 04005KT 21/13 A2991 RMK A01 T02080127  RH  062%=      5-min Rain = 0
KGGS 260015Z 01004KT 21/13 A2992 RMK A01 T02070129  RH  063%=      5-min Rain = 0
KGGS 260020Z 31006G11KT 19/13 A2992 RMK A01 T01940133  RH  071%=      5-min Rain = 0
KGGS 260025Z 35012G20KT 18/14 A2993 RMK A01 T01830135  RH  077%=      5-min Rain = 0.08
KGGS 260030Z 13005KT 17/13 A2993 RMK A01 T01740129  RH  078%=      5-min Rain = 0.12
KGGS 260035Z 09006KT 17/14 A2992 RMK A01 T01720136  RH  082%=      5-min Rain = 0
KGGS 260040Z 06007KT 17/14 A2992 RMK A01 T01730141  RH  085%=      5-min Rain = 0
KGGS 260045Z 05007KT 18/15 A2991 RMK A01 T01770146  RH  086%=      5-min Rain = 0
KGGS 260050Z 04006KT 18/15 A2991 RMK A01 T01780147  RH  085%=      5-min Rain = 0
KGGS 260055Z 05007KT 18/15 A2991 RMK A01 T01810147  RH  084%=      5-min Rain = 0
KGGS 260100Z 04007KT 18/15 A2992 RMK A01 T01830146  RH  083%=      5-min Rain = 0
KGGS 260105Z 01005KT 19/15 A2992 RMK A01 T01860148  RH  082%=      5-min Rain = 0
KGGS 260110Z 01005KT 19/15 A2993 RMK A01 T01860148  RH  082%=      5-min Rain = 0
KGGS 260115Z 01005KT 19/15 A2993 RMK A01 T01860146  RH  081%=      5-min Rain = 0
KGGS 260120Z 35005KT 19/14 A2993 RMK A01 T01860143  RH  079%=      5-min Rain = 0
KGGS 260125Z 35005KT 19/14 A2993 RMK A01 T01850141  RH  079%=      5-min Rain = 0
KGGS 260130Z 34006KT 18/14 A2994 RMK A01 T01840138  RH  078%=      5-min Rain = 0
KGGS 260135Z 34006KT 18/14 A2994 RMK A01 T01840136  RH  077%=      5-min Rain = 0
KGGS 260140Z 33005KT 18/14 A2995 RMK A01 T01820137  RH  078%=      5-min Rain = 0
KGGS 260145Z 32005KT 18/14 A2995 RMK A01 T01800138  RH  079%=      5-min Rain = 0
KGGS 260150Z 33006KT 18/14 A2995 RMK A01 T01810137  RH  079%=      5-min Rain = 0
KGGS 260155Z 33005KT 18/14 A2996 RMK A01 T01810137  RH  079%=      5-min Rain = 0
KGGS 260200Z 35005KT 18/14 A2996 RMK A01 T01830138  RH  078%=      5-min Rain = 0
KGGS 260205Z 00005KT 19/14 A2996 RMK A01 T01860137  RH  076%=      5-min Rain = 0
KGGS 260210Z 00006KT 19/14 A2996 RMK A01 T01850135  RH  076%=      5-min Rain = 0
KGGS 260215Z 01006KT 19/13 A2996 RMK A01 T01850132  RH  074%=      5-min Rain = 0
KGGS 260220Z 01006G11KT 18/13 A2996 RMK A01 T01820132  RH  075%=      5-min Rain = 0
KGGS 260225Z 01007KT 18/13 A2996 RMK A01 T01830130  RH  074%=      5-min Rain = 0
KGGS 260230Z 01007KT 18/13 A2996 RMK A01 T01830128  RH  073%=      5-min Rain = 0
KGGS 260235Z 01007KT 18/13 A2997 RMK A01 T01830128  RH  073%=      5-min Rain = 0
KGGS 260240Z 01006KT 18/13 A2997 RMK A01 T01830128  RH  073%=      5-min Rain = 0
KGGS 260245Z 02007KT 18/13 A2997 RMK A01 T01820129  RH  074%=      5-min Rain = 0.01
KGGS 260250Z 02006KT 18/13 A2997 RMK A01 T01800130  RH  075%=      5-min Rain = 0
KGGS 260255Z 02006KT 18/13 A2997 RMK A01 T01810130  RH  075%=      5-min Rain = 0
KGGS 260300Z 02006KT 18/13 A2997 RMK A01 T01830129  RH  074%=      5-min Rain = 0
KGGS 260305Z 02005KT 18/13 A2998 RMK A01 T01820129  RH  074%=      5-min Rain = 0
KGGS 260310Z 02004KT 18/13 A2998 RMK A01 T01800130  RH  075%=      5-min Rain = 0
KGGS 260315Z 03003KT 18/13 A2999 RMK A01 T01780131  RH  077%=      5-min Rain = 0
KGGS 260320Z 03004KT 18/13 A2999 RMK A01 T01760131  RH  078%=      5-min Rain = 0
KGGS 260325Z 02004KT 17/13 A2999 RMK A01 T01740132  RH  079%=      5-min Rain = 0
KGGS 260330Z 00005KT 17/13 A30 RMK A01 T01720132  RH  081%=      5-min Rain = 0
KGGS 260335Z 36006KT 17/13 A30 RMK A01 T01720129  RH  079%=      5-min Rain = 0
KGGS 260340Z 01005KT 17/13 A30 RMK A01 T01730127  RH  078%=      5-min Rain = 0
KGGS 260345Z 01004KT 17/13 A3001 RMK A01 T01720128  RH  078%=      5-min Rain = 0
KGGS 260350Z 36004KT 17/13 A3001 RMK A01 T01710127  RH  079%=      5-min Rain = 0
KGGS 260355Z 36004KT 17/13 A3001 RMK A01 T01690127  RH  079%=      5-min Rain = 0
KGGS 260400Z 35005KT 17/13 A3001 RMK A01 T01680127  RH  080%=      5-min Rain = 0
KGGS 260405Z 35005KT 17/13 A3001 RMK A01 T01670127  RH  080%=      5-min Rain = 0
KGGS 260410Z 35006KT 17/13 A3001 RMK A01 T01670125  RH  079%=      5-min Rain = 0
KGGS 260415Z 34007KT 17/12 A3002 RMK A01 T01650124  RH  080%=      5-min Rain = 0
KGGS 260420Z 34007KT 17/12 A3002 RMK A01 T01650124  RH  080%=      5-min Rain = 0
KGGS 260425Z 35006KT 17/12 A3002 RMK A01 T01650123  RH  079%=      5-min Rain = 0
KGGS 260430Z 35005KT 16/12 A3002 RMK A01 T01630122  RH  080%=      5-min Rain = 0
KGGS 260435Z 35006KT 16/12 A3002 RMK A01 T01620122  RH  080%=      5-min Rain = 0
KGGS 260440Z 35006KT 16/12 A3002 RMK A01 T01600122  RH  081%=      5-min Rain = 0
KGGS 260445Z 35006KT 16/12 A3002 RMK A01 T01610122  RH  081%=      5-min Rain = 0
KGGS 260450Z 35006KT 16/12 A3003 RMK A01 T01600121  RH  081%=      5-min Rain = 0
KGGS 260455Z 36006KT 16/12 A3003 RMK A01 T01580120  RH  081%=      5-min Rain = 0

Page generated in 0.0297 seconds.